createdAt,value
2023-04-06T00:02:14.629Z,49.00
2023-04-06T00:04:42.678Z,49.00
2023-04-06T00:07:10.811Z,49.00
2023-04-06T00:09:38.770Z,49.00
2023-04-06T00:12:08.546Z,49.00
2023-04-06T00:14:36.569Z,49.00
2023-04-06T00:17:04.640Z,49.00
2023-04-06T00:19:32.851Z,49.00
2023-04-06T00:22:00.917Z,49.00
2023-04-06T00:24:28.902Z,49.00
2023-04-06T00:26:57.087Z,49.00
2023-04-06T00:29:26.596Z,49.00
2023-04-06T00:31:54.598Z,48.90
2023-04-06T00:34:22.622Z,49.00
2023-04-06T00:36:50.566Z,48.90
2023-04-06T00:39:20.513Z,48.90
2023-04-06T00:41:52.657Z,49.00
2023-04-06T00:44:20.950Z,48.90
2023-04-06T00:46:50.434Z,49.60
2023-04-06T00:49:18.482Z,49.00
2023-04-06T00:51:46.454Z,49.60
2023-04-06T00:54:14.419Z,48.90
2023-04-06T00:56:44.169Z,48.90
2023-04-06T00:59:13.044Z,48.90
2023-04-06T01:01:41.319Z,49.60
2023-04-06T01:04:10.908Z,48.80
2023-04-06T01:06:38.867Z,48.90
2023-04-06T01:09:06.956Z,48.90
2023-04-06T01:11:35.240Z,49.60
2023-04-06T01:14:03.228Z,48.90
2023-04-06T01:16:31.389Z,48.80
2023-04-06T01:18:59.713Z,48.80
2023-04-06T01:21:29.021Z,48.90
2023-04-06T01:23:58.372Z,48.90
2023-04-06T01:26:27.086Z,48.80
2023-04-06T01:28:55.192Z,49.50
2023-04-06T01:31:23.995Z,48.90
2023-04-06T01:33:52.018Z,48.80
2023-04-06T01:36:20.518Z,48.80
2023-04-06T01:38:48.550Z,48.80
2023-04-06T01:41:17.881Z,48.80
2023-04-06T01:43:46.668Z,48.80
2023-04-06T01:46:14.716Z,48.80
2023-04-06T01:48:42.715Z,48.80
2023-04-06T01:51:10.780Z,48.80
2023-04-06T01:53:38.761Z,48.80
2023-04-06T01:56:07.640Z,48.80
2023-04-06T01:58:37.350Z,48.80
2023-04-06T02:01:05.463Z,48.80
2023-04-06T02:03:33.499Z,48.80
2023-04-06T02:06:01.427Z,48.80
2023-04-06T02:08:29.445Z,49.50
2023-04-06T02:10:57.391Z,48.80
2023-04-06T02:13:25.434Z,48.80
2023-04-06T02:15:54.821Z,48.80
2023-04-06T02:18:23.408Z,48.80
2023-04-06T02:20:51.395Z,48.80
2023-04-06T02:23:19.361Z,49.40
2023-04-06T02:25:47.382Z,48.80
2023-04-06T02:28:15.614Z,48.80
2023-04-06T02:30:43.637Z,48.80
2023-04-06T02:33:12.956Z,48.80
2023-04-06T02:35:40.970Z,48.80
2023-04-06T02:38:09.060Z,48.80
2023-04-06T02:40:37.003Z,48.70
2023-04-06T02:43:04.961Z,49.40
2023-04-06T02:45:32.954Z,48.70
2023-04-06T02:48:01.011Z,48.70
2023-04-06T02:50:30.482Z,48.60
2023-04-06T02:52:58.409Z,48.60
2023-04-06T02:55:26.385Z,49.30
2023-04-06T02:57:54.346Z,48.70
2023-04-06T03:00:22.331Z,48.70
2023-04-06T03:02:50.806Z,48.70
2023-04-06T03:05:19.006Z,48.70
2023-04-06T03:07:48.362Z,48.70
2023-04-06T03:10:16.322Z,48.60
2023-04-06T03:12:44.309Z,48.60
2023-04-06T03:15:12.761Z,49.20
2023-04-06T03:17:41.938Z,48.60
2023-04-06T03:20:10.570Z,48.70
2023-04-06T03:22:38.577Z,48.60
2023-04-06T03:25:08.659Z,48.70
2023-04-06T03:27:36.678Z,48.60
2023-04-06T03:30:05.151Z,48.60
2023-04-06T03:32:33.160Z,48.70
2023-04-06T03:35:01.168Z,48.60
2023-04-06T03:37:29.118Z,48.60
2023-04-06T03:39:57.092Z,48.60
2023-04-06T03:42:27.715Z,48.60
2023-04-06T03:44:55.878Z,48.60
2023-04-06T03:47:24.861Z,48.60
2023-04-06T03:49:52.898Z,48.60
2023-04-06T03:52:20.834Z,48.60
2023-04-06T03:54:48.778Z,48.60
2023-04-06T03:57:16.797Z,48.60
2023-04-06T03:59:46.301Z,49.20
2023-04-06T04:02:14.274Z,48.60
2023-04-06T04:04:42.275Z,48.60
2023-04-06T04:07:10.267Z,48.60
2023-04-06T04:09:38.929Z,48.60
2023-04-06T04:12:07.346Z,48.60
2023-04-06T04:14:35.321Z,48.60
2023-04-06T04:17:04.652Z,48.60
2023-04-06T04:19:32.622Z,48.60
2023-04-06T04:22:00.640Z,48.60
2023-04-06T04:24:28.585Z,48.60
2023-04-06T04:26:56.991Z,48.70
2023-04-06T04:29:25.276Z,48.60
2023-04-06T04:31:53.406Z,48.60
2023-04-06T04:34:24.966Z,48.60
2023-04-06T04:36:53.043Z,48.60
2023-04-06T04:39:21.313Z,48.50
2023-04-06T04:41:49.334Z,48.50
2023-04-06T04:44:17.357Z,48.50
2023-04-06T04:46:45.346Z,48.50
2023-04-06T04:49:13.270Z,48.50
2023-04-06T04:51:42.568Z,48.60
2023-04-06T04:54:10.566Z,48.50
2023-04-06T04:56:38.518Z,49.10
2023-04-06T04:59:06.691Z,48.50
2023-04-06T05:01:43.968Z,48.50
2023-04-06T05:04:22.083Z,48.50
2023-04-06T05:06:51.466Z,48.50
2023-04-06T05:09:19.532Z,48.60
2023-04-06T05:11:47.471Z,48.50
2023-04-06T05:14:16.734Z,48.50
2023-04-06T05:16:44.927Z,48.50
2023-04-06T05:19:13.082Z,48.50
2023-04-06T05:21:41.100Z,48.50
2023-04-06T05:24:10.691Z,48.50
2023-04-06T05:26:38.769Z,48.50
2023-04-06T05:29:07.117Z,48.60
2023-04-06T05:31:35.386Z,48.50
2023-04-06T05:34:03.430Z,48.60
2023-04-06T05:36:33.055Z,48.50
2023-04-06T05:39:01.031Z,48.60
2023-04-06T05:41:30.547Z,48.60
2023-04-06T05:43:58.580Z,48.50
2023-04-06T05:46:26.566Z,48.60
2023-04-06T05:48:54.617Z,48.60
2023-04-06T05:51:22.535Z,48.60
2023-04-06T05:53:50.533Z,48.60
2023-04-06T05:56:18.519Z,48.60
2023-04-06T05:58:47.854Z,48.50
2023-04-06T06:01:16.244Z,48.60
2023-04-06T06:03:44.256Z,48.50
2023-04-06T06:06:12.218Z,48.50
2023-04-06T06:08:40.339Z,49.20
2023-04-06T06:11:08.395Z,48.50
2023-04-06T06:13:36.350Z,48.50
2023-04-06T06:16:06.632Z,48.60
2023-04-06T06:18:34.649Z,48.50
2023-04-06T06:21:02.645Z,48.50
2023-04-06T06:23:30.717Z,48.50
2023-04-06T06:25:59.112Z,48.60
2023-04-06T06:28:27.455Z,48.50
2023-04-06T06:30:55.504Z,48.50
2023-04-06T06:33:24.976Z,48.60
2023-04-06T06:35:53.324Z,48.50
2023-04-06T06:38:23.804Z,48.60
2023-04-06T06:40:52.034Z,48.60
2023-04-06T06:43:21.300Z,48.60
2023-04-06T06:45:49.376Z,48.60
2023-04-06T06:48:17.454Z,48.60
2023-04-06T06:50:49.125Z,48.60
2023-04-06T06:53:17.063Z,48.60
2023-04-06T06:55:45.785Z,48.60
2023-04-06T06:58:13.887Z,48.60
2023-04-06T07:00:41.869Z,48.60
2023-04-06T07:03:09.832Z,48.60
2023-04-06T07:05:40.124Z,48.60
2023-04-06T07:08:10.741Z,48.60
2023-04-06T07:10:38.676Z,48.70
2023-04-06T07:13:06.645Z,48.70
2023-04-06T07:15:34.649Z,48.70
2023-04-06T07:18:02.783Z,48.70
2023-04-06T07:20:30.866Z,48.70
2023-04-06T07:22:58.879Z,48.70
2023-04-06T07:25:28.245Z,48.80
2023-04-06T07:27:56.291Z,48.70
2023-04-06T07:30:26.127Z,48.70
2023-04-06T07:32:56.374Z,48.70
2023-04-06T07:35:24.724Z,48.70
2023-04-06T07:37:52.931Z,48.90
2023-04-06T07:40:21.083Z,48.70
2023-04-06T07:42:51.153Z,48.70
2023-04-06T07:45:19.222Z,48.70
2023-04-06T07:47:47.361Z,49.40
2023-04-06T07:50:15.619Z,48.70
2023-04-06T07:52:43.908Z,48.70
2023-04-06T07:55:12.001Z,48.70
2023-04-06T07:57:40.094Z,48.70
2023-04-06T08:00:11.431Z,48.90
2023-04-06T08:02:39.532Z,48.70
2023-04-06T08:05:08.353Z,48.80
2023-04-06T08:07:36.579Z,48.70
2023-04-06T08:10:05.331Z,48.70
2023-04-06T08:12:35.471Z,49.10
2023-04-06T08:15:04.720Z,48.80
2023-04-06T08:17:36.079Z,48.70
2023-04-06T08:20:05.192Z,48.70
2023-04-06T08:22:33.301Z,48.70
2023-04-06T08:25:01.305Z,48.70
2023-04-06T08:27:29.459Z,48.80
2023-04-06T08:29:57.707Z,48.70
2023-04-06T08:32:26.936Z,48.70
2023-04-06T08:34:57.358Z,48.70
2023-04-06T08:37:25.709Z,48.70
2023-04-06T08:39:53.686Z,48.70
2023-04-06T08:42:22.846Z,48.70
2023-04-06T08:44:53.267Z,48.80
2023-04-06T08:47:24.467Z,48.90
2023-04-06T08:49:54.975Z,48.80
2023-04-06T08:52:25.318Z,48.80
2023-04-06T08:54:53.290Z,48.80
2023-04-06T08:57:22.034Z,48.90
2023-04-06T08:59:50.271Z,48.80
2023-04-06T09:02:20.308Z,48.80
2023-04-06T09:04:50.840Z,48.80
2023-04-06T09:07:18.969Z,48.90
2023-04-06T09:09:49.783Z,48.80
2023-04-06T09:12:28.498Z,48.80
2023-04-06T09:14:56.966Z,48.80
2023-04-06T09:17:25.650Z,48.80
2023-04-06T09:19:54.036Z,48.80
2023-04-06T09:22:22.446Z,48.80
2023-04-06T09:24:54.181Z,48.80
2023-04-06T09:27:32.861Z,48.80
2023-04-06T09:30:07.172Z,48.80
2023-04-06T09:32:45.718Z,48.80
2023-04-06T09:35:14.058Z,48.80
2023-04-06T09:37:42.028Z,48.90
2023-04-06T09:40:12.353Z,48.90
2023-04-06T09:42:42.320Z,48.80
2023-04-06T09:45:11.247Z,48.80
2023-04-06T09:47:41.327Z,49.00
2023-04-06T09:50:11.149Z,49.00
2023-04-06T09:52:43.336Z,48.90
2023-04-06T09:55:14.245Z,48.90
2023-04-06T09:57:49.951Z,48.90
2023-04-06T10:00:24.314Z,48.90
2023-04-06T10:02:58.408Z,48.90
2023-04-06T10:05:36.064Z,48.90
2023-04-06T10:08:09.229Z,48.90
2023-04-06T10:10:39.234Z,48.90
2023-04-06T10:13:07.847Z,48.90
2023-04-06T10:15:35.927Z,48.90
2023-04-06T10:18:05.660Z,48.90
2023-04-06T10:20:41.775Z,48.90
2023-04-06T10:23:17.045Z,48.90
2023-04-06T10:25:56.502Z,48.90
2023-04-06T10:28:24.976Z,48.90
2023-04-06T10:31:00.028Z,48.90
2023-04-06T10:33:28.163Z,48.90
2023-04-06T10:35:56.547Z,48.90
2023-04-06T10:38:38.941Z,48.90
2023-04-06T10:41:11.422Z,49.00
2023-04-06T10:43:41.212Z,48.90
2023-04-06T10:46:10.907Z,48.90
2023-04-06T10:48:41.057Z,48.90
2023-04-06T10:51:14.236Z,48.90
2023-04-06T10:53:44.830Z,49.00
2023-04-06T10:56:16.630Z,48.90
2023-04-06T10:58:48.508Z,49.00
2023-04-06T11:01:18.634Z,48.90
2023-04-06T11:03:47.289Z,49.00
2023-04-06T11:06:20.776Z,48.90
2023-04-06T11:08:49.035Z,49.00
2023-04-06T11:11:20.277Z,49.00
2023-04-06T11:13:51.526Z,49.00
2023-04-06T11:16:20.970Z,49.00
2023-04-06T11:18:53.810Z,49.00
2023-04-06T11:21:33.957Z,49.00
2023-04-06T11:24:09.769Z,49.00
2023-04-06T11:26:47.374Z,49.00
2023-04-06T11:29:17.864Z,49.00
2023-04-06T11:31:48.222Z,49.00
2023-04-06T11:34:19.307Z,49.00
2023-04-06T11:36:48.517Z,49.00
2023-04-06T11:39:21.116Z,49.00
2023-04-06T11:41:51.449Z,49.00
2023-04-06T11:44:33.788Z,49.00
2023-04-06T11:47:02.755Z,49.00
2023-04-06T11:49:31.208Z,49.10
2023-04-06T11:52:00.827Z,49.20
2023-04-06T11:54:33.070Z,49.10
2023-04-06T11:57:02.678Z,49.10
2023-04-06T11:59:30.813Z,49.10
2023-04-06T12:02:00.002Z,49.10
2023-04-06T12:04:28.002Z,49.10
2023-04-06T12:06:56.239Z,49.20
2023-04-06T12:09:24.201Z,49.10
2023-04-06T12:11:52.468Z,49.10
2023-04-06T12:14:22.715Z,49.10
2023-04-06T12:16:50.840Z,49.10
2023-04-06T12:19:19.035Z,49.10
2023-04-06T12:21:47.046Z,49.10
2023-04-06T12:24:15.017Z,49.10
2023-04-06T12:26:43.046Z,49.10
2023-04-06T12:29:11.080Z,49.10
2023-04-06T12:31:41.710Z,49.10
2023-04-06T12:34:09.769Z,49.10
2023-04-06T12:36:39.610Z,49.10
2023-04-06T12:39:07.963Z,49.10
2023-04-06T12:41:36.603Z,49.00
2023-04-06T12:44:04.901Z,49.00
2023-04-06T12:46:32.938Z,49.00
2023-04-06T12:49:02.289Z,49.00
2023-04-06T12:51:30.725Z,49.00
2023-04-06T12:53:58.857Z,49.00
2023-04-06T12:56:27.665Z,49.00
2023-04-06T12:58:55.962Z,49.70
2023-04-06T13:01:24.170Z,49.00
2023-04-06T13:03:52.416Z,48.90
2023-04-06T13:06:22.612Z,48.90
2023-04-06T13:08:51.086Z,48.80
2023-04-06T13:11:21.446Z,48.80
2023-04-06T13:13:49.418Z,48.80
2023-04-06T13:16:17.654Z,48.70
2023-04-06T13:18:46.227Z,48.70
2023-04-06T13:21:17.519Z,48.60
2023-04-06T13:23:46.889Z,49.10
2023-04-06T13:26:16.173Z,48.50
2023-04-06T13:28:44.321Z,48.50
2023-04-06T13:31:12.617Z,48.40
2023-04-06T13:33:41.802Z,48.40
2023-04-06T13:36:10.193Z,48.50
2023-04-06T13:38:39.841Z,48.50
2023-04-06T13:41:09.276Z,48.60
2023-04-06T13:43:37.255Z,48.50
2023-04-06T13:46:05.620Z,48.40
2023-04-06T13:48:33.658Z,48.50
2023-04-06T13:51:10.719Z,48.60
2023-04-06T13:53:40.336Z,48.60
2023-04-06T13:56:11.321Z,48.60
2023-04-06T13:58:39.247Z,48.60
2023-04-06T14:01:08.609Z,48.60
2023-04-06T14:03:37.356Z,48.70
2023-04-06T14:06:20.669Z,48.70
2023-04-06T14:08:49.098Z,48.80
2023-04-06T14:11:18.391Z,48.80
2023-04-06T14:13:46.477Z,48.90
2023-04-06T14:16:14.712Z,48.90
2023-04-06T14:18:43.650Z,48.90
2023-04-06T14:21:11.604Z,49.10
2023-04-06T14:23:40.154Z,49.10
2023-04-06T14:26:09.763Z,49.10
2023-04-06T14:28:39.510Z,49.00
2023-04-06T14:31:13.989Z,49.10
2023-04-06T14:33:42.766Z,49.10
2023-04-06T14:36:11.877Z,49.10
2023-04-06T14:38:40.444Z,49.80
2023-04-06T14:41:08.838Z,49.20
2023-04-06T14:43:38.140Z,49.10
2023-04-06T14:46:06.178Z,49.20
2023-04-06T14:48:34.059Z,49.10
2023-04-06T14:51:01.944Z,49.10
2023-04-06T14:53:30.349Z,49.10
2023-04-06T14:55:58.796Z,49.10
2023-04-06T14:58:27.820Z,49.10
2023-04-06T15:00:59.698Z,49.10
2023-04-06T15:03:27.792Z,49.10
2023-04-06T15:05:56.708Z,49.10
2023-04-06T15:08:25.430Z,49.10
2023-04-06T15:10:55.568Z,49.00
2023-04-06T15:13:23.533Z,49.10
2023-04-06T15:15:53.072Z,49.10
2023-04-06T15:18:22.495Z,49.10
2023-04-06T15:20:50.473Z,49.10
2023-04-06T15:23:19.168Z,49.10
2023-04-06T15:25:47.078Z,49.10
2023-04-06T15:28:15.612Z,49.10
2023-04-06T15:30:43.825Z,49.10
2023-04-06T15:33:11.720Z,49.10
2023-04-06T15:35:42.951Z,49.10
2023-04-06T15:38:11.621Z,49.10
2023-04-06T15:40:46.119Z,49.10
2023-04-06T15:43:14.342Z,49.10
2023-04-06T15:45:42.702Z,49.10
2023-04-06T15:48:10.775Z,49.00
2023-04-06T15:50:40.369Z,49.20
2023-04-06T15:53:08.325Z,49.10
2023-04-06T15:55:36.175Z,49.20
2023-04-06T15:58:04.232Z,49.10
2023-04-06T16:00:32.273Z,49.20
2023-04-06T16:03:00.490Z,49.20
2023-04-06T16:05:33.976Z,49.20
2023-04-06T16:08:03.969Z,49.20
2023-04-06T16:10:33.081Z,49.20
2023-04-06T16:13:00.966Z,49.20
2023-04-06T16:15:28.883Z,49.20
2023-04-06T16:17:56.860Z,49.30
2023-04-06T16:20:25.095Z,49.20
2023-04-06T16:22:53.000Z,49.30
2023-04-06T16:25:22.291Z,49.20
2023-04-06T16:27:50.244Z,49.20
2023-04-06T16:30:18.146Z,49.20
2023-04-06T16:32:47.230Z,49.20
2023-04-06T16:35:15.112Z,49.20
2023-04-06T16:37:42.997Z,49.20
2023-04-06T16:40:11.427Z,49.20
2023-04-06T16:42:41.257Z,49.20
2023-04-06T16:45:09.735Z,49.20
2023-04-06T16:47:37.911Z,49.20
2023-04-06T16:50:07.615Z,49.90
2023-04-06T16:52:35.831Z,49.20
2023-04-06T16:55:03.836Z,49.20
2023-04-06T16:57:31.908Z,49.20
2023-04-06T17:00:01.256Z,49.30
2023-04-06T17:02:29.683Z,49.20
2023-04-06T17:04:57.632Z,49.20
2023-04-06T17:07:32.148Z,49.30
2023-04-06T17:10:02.210Z,49.20
2023-04-06T17:12:30.200Z,49.30
2023-04-06T17:14:58.298Z,49.20
2023-04-06T17:17:27.510Z,49.20
2023-04-06T17:19:55.560Z,49.30
2023-04-06T17:22:23.424Z,49.40
2023-04-06T17:24:51.285Z,49.30
2023-04-06T17:27:22.859Z,49.30
2023-04-06T17:29:50.951Z,49.30
2023-04-06T17:32:21.952Z,49.30
2023-04-06T17:34:51.167Z,49.30
2023-04-06T17:37:19.036Z,49.30
2023-04-06T17:39:46.908Z,49.30
2023-04-06T17:42:14.843Z,49.30
2023-04-06T17:44:42.709Z,49.30
2023-04-06T17:47:10.892Z,49.30
2023-04-06T17:49:38.726Z,49.30
2023-04-06T17:52:08.095Z,49.30
2023-04-06T17:54:36.984Z,49.30
2023-04-06T17:57:07.512Z,49.30
2023-04-06T17:59:35.686Z,49.30
2023-04-06T18:02:04.314Z,49.30
2023-04-06T18:04:32.312Z,49.30
2023-04-06T18:07:00.240Z,49.30
2023-04-06T18:09:31.658Z,49.30
2023-04-06T18:11:59.557Z,49.40
2023-04-06T18:14:27.469Z,49.30
2023-04-06T18:16:55.414Z,49.30
2023-04-06T18:19:23.366Z,49.30
2023-04-06T18:21:51.216Z,49.30
2023-04-06T18:24:37.435Z,49.30
2023-04-06T18:27:08.292Z,49.30
2023-04-06T18:29:37.013Z,49.30
2023-04-06T18:32:06.455Z,49.30
2023-04-06T18:34:34.444Z,49.30
2023-04-06T18:37:02.469Z,49.30
2023-04-06T18:39:30.536Z,49.30
2023-04-06T18:41:58.518Z,49.30
2023-04-06T18:44:27.845Z,49.30
2023-04-06T18:46:56.091Z,49.30
2023-04-06T18:49:24.040Z,49.30
2023-04-06T18:51:53.622Z,49.30
2023-04-06T18:54:21.688Z,49.30
2023-04-06T18:56:49.681Z,49.30
2023-04-06T18:59:19.179Z,49.30
2023-04-06T19:01:51.055Z,49.30
2023-04-06T19:04:19.354Z,49.30
2023-04-06T19:06:47.486Z,49.30
2023-04-06T19:09:15.425Z,49.30
2023-04-06T19:11:43.289Z,49.30
2023-04-06T19:14:11.349Z,49.30
2023-04-06T19:16:41.958Z,49.30
2023-04-06T19:19:11.200Z,49.30
2023-04-06T19:21:39.072Z,49.30
2023-04-06T19:24:07.534Z,49.30
2023-04-06T19:26:35.486Z,49.30
2023-04-06T19:29:04.167Z,49.30
2023-04-06T19:31:32.328Z,49.30
2023-04-06T19:34:00.334Z,49.30
2023-04-06T19:36:29.650Z,49.30
2023-04-06T19:38:57.628Z,49.30
2023-04-06T19:41:26.540Z,49.30
2023-04-06T19:43:54.535Z,49.30
2023-04-06T19:46:22.586Z,49.30
2023-04-06T19:48:50.554Z,49.30
2023-04-06T19:51:18.613Z,49.30
2023-04-06T19:53:48.442Z,49.30
2023-04-06T19:56:16.472Z,49.20
2023-04-06T19:58:44.399Z,49.30
2023-04-06T20:01:12.301Z,49.30
2023-04-06T20:03:40.897Z,49.20
2023-04-06T20:06:08.960Z,49.30
2023-04-06T20:08:36.857Z,49.20
2023-04-06T20:11:07.586Z,49.20
2023-04-06T20:13:35.805Z,49.30
2023-04-06T20:16:04.207Z,49.20
2023-04-06T20:18:32.507Z,49.30
2023-04-06T20:21:00.466Z,49.30
2023-04-06T20:23:28.368Z,49.30
2023-04-06T20:25:56.268Z,49.30
2023-04-06T20:28:25.576Z,49.40
2023-04-06T20:30:53.856Z,49.30
2023-04-06T20:33:22.126Z,49.40
2023-04-06T20:35:57.807Z,49.30
2023-04-06T20:38:33.046Z,49.30
2023-04-06T20:41:01.873Z,49.30
2023-04-06T20:43:31.491Z,49.30
2023-04-06T20:46:02.024Z,49.40
2023-04-06T20:48:34.743Z,49.30
2023-04-06T20:51:03.018Z,49.30
2023-04-06T20:53:31.697Z,49.30
2023-04-06T20:56:01.875Z,49.30
2023-04-06T20:58:31.228Z,49.30
2023-04-06T21:00:59.093Z,49.30
2023-04-06T21:03:27.274Z,49.30
2023-04-06T21:05:57.269Z,49.30
2023-04-06T21:08:25.268Z,49.30
2023-04-06T21:10:53.176Z,49.30
2023-04-06T21:13:21.075Z,49.40
2023-04-06T21:15:51.558Z,49.30
2023-04-06T21:18:19.626Z,50.00
2023-04-06T21:20:47.580Z,49.30
2023-04-06T21:23:16.203Z,49.30
2023-04-06T21:25:44.052Z,49.30
2023-04-06T21:28:11.927Z,49.30
2023-04-06T21:30:39.945Z,49.30
2023-04-06T21:33:09.468Z,49.30
2023-04-06T21:35:39.946Z,49.30
2023-04-06T21:38:07.983Z,49.30
2023-04-06T21:40:35.867Z,49.30
2023-04-06T21:43:04.070Z,49.30
2023-04-06T21:45:32.971Z,49.30
2023-04-06T21:48:01.393Z,49.30
2023-04-06T21:50:30.663Z,49.30
2023-04-06T21:52:58.539Z,49.40
2023-04-06T21:55:26.380Z,49.30
2023-04-06T21:57:54.260Z,49.30
2023-04-06T22:00:22.380Z,49.30
2023-04-06T22:02:50.918Z,50.00
2023-04-06T22:05:19.243Z,49.30
2023-04-06T22:07:48.606Z,49.30
2023-04-06T22:10:16.517Z,49.30
2023-04-06T22:12:44.520Z,49.40
2023-04-06T22:15:13.788Z,49.30
2023-04-06T22:17:41.737Z,49.40
2023-04-06T22:20:10.149Z,49.50
2023-04-06T22:22:38.030Z,49.40
2023-04-06T22:25:08.535Z,49.50
2023-04-06T22:27:36.565Z,49.40
2023-04-06T22:30:05.316Z,49.40
2023-04-06T22:32:33.300Z,49.50
2023-04-06T22:35:01.253Z,49.40
2023-04-06T22:37:29.141Z,49.40
2023-04-06T22:39:57.108Z,49.40
2023-04-06T22:42:26.678Z,49.50
2023-04-06T22:44:54.533Z,49.50
2023-04-06T22:47:22.515Z,49.50
2023-04-06T22:49:50.621Z,49.50
2023-04-06T22:52:18.471Z,49.50
2023-04-06T22:54:46.392Z,49.50
2023-04-06T22:57:14.378Z,49.50
2023-04-06T22:59:43.637Z,49.50
2023-04-06T23:02:11.668Z,49.50
2023-04-06T23:04:39.591Z,49.50
2023-04-06T23:07:07.617Z,49.50
2023-04-06T23:09:35.509Z,49.50
2023-04-06T23:12:03.610Z,49.50
2023-04-06T23:14:32.450Z,49.50
2023-04-06T23:17:01.689Z,49.50
2023-04-06T23:19:29.579Z,49.50
2023-04-06T23:21:58.461Z,49.50
2023-04-06T23:24:27.530Z,49.50
2023-04-06T23:26:56.349Z,49.50
2023-04-06T23:29:24.433Z,49.50
2023-04-06T23:31:52.549Z,49.50
2023-04-06T23:34:21.739Z,49.60
2023-04-06T23:36:49.660Z,49.60
2023-04-06T23:39:17.602Z,49.50
2023-04-06T23:41:45.484Z,49.50
2023-04-06T23:44:13.333Z,49.50
2023-04-06T23:46:41.261Z,49.60
2023-04-06T23:49:09.179Z,49.60
2023-04-06T23:51:38.396Z,49.60
2023-04-06T23:54:06.447Z,49.60
2023-04-06T23:56:34.425Z,49.60
2023-04-06T23:59:02.349Z,49.60
